Time;durP1;ratioP1;P1;durP2;ratioP2;P2;SDS_P1;SDS_P2;PMS_P1;PMS_P2;Temp;Humidity;BMP_temperature;BMP_pressure;BME280_temperature;BME280_humidity;BME280_pressure;Samples;Min_cycle;Max_cycle;Signal;HPM_P1;HPM_P2
2022/07/28 00:01:37;;;;;;;6.80;5.07;;;;;;;26.36;83.83;100356.84;5033206;28;20057;-81
2022/07/28 00:04:02;;;;;;;8.18;5.07;;;;;;;26.42;83.83;100364.19;5033300;28;20045;-80
2022/07/28 00:06:28;;;;;;;10.02;5.10;;;;;;;26.41;83.65;100360.59;5033604;28;20030;-80
2022/07/28 00:08:54;;;;;;;8.85;5.25;;;;;;;26.38;83.55;100363.81;5033739;28;20017;-81
2022/07/28 00:11:19;;;;;;;12.00;5.50;;;;;;;26.41;83.44;100365.25;5033560;28;20040;-80
2022/07/28 00:13:44;;;;;;;8.80;5.72;;;;;;;26.40;83.19;100371.84;5032998;28;20048;-79
2022/07/28 00:16:10;;;;;;;12.75;4.80;;;;;;;26.40;83.58;100377.34;5033099;28;20025;-80
2022/07/28 00:18:35;;;;;;;9.68;4.88;;;;;;;26.42;83.45;100373.28;5033237;28;20079;-80
2022/07/28 00:21:01;;;;;;;11.02;5.28;;;;;;;26.41;83.37;100376.28;5033699;28;20087;-79
2022/07/28 00:23:26;;;;;;;11.60;4.97;;;;;;;26.37;83.42;100370.41;5033286;28;20029;-80
2022/07/28 00:25:52;;;;;;;12.10;5.90;;;;;;;26.36;83.51;100378.94;5033004;28;20039;-80
2022/07/28 00:28:18;;;;;;;9.07;5.05;;;;;;;26.35;83.43;100377.22;5033071;28;20031;-80
2022/07/28 00:30:43;;;;;;;10.75;5.22;;;;;;;26.34;83.38;100381.91;5033436;28;20109;-80
2022/07/28 00:33:09;;;;;;;11.57;5.75;;;;;;;26.31;83.56;100378.75;5033186;28;20448;-80
2022/07/28 00:35:35;;;;;;;7.53;5.40;;;;;;;26.25;83.93;100375.03;5033493;28;20060;-80
2022/07/28 00:38:00;;;;;;;10.25;5.00;;;;;;;26.26;84.14;100375.88;5033186;28;20056;-80
2022/07/28 00:41:09;;;;;;;10.40;4.93;;;;;;;26.32;83.38;100385.97;5032636;28;20037;-80
2022/07/28 00:43:11;;;;;;;7.30;5.18;;;;;;;26.23;83.63;100376.34;5032646;28;20442;-80
2022/07/28 00:45:37;;;;;;;10.50;5.18;;;;;;;26.29;83.46;100379.00;5032815;28;20031;-80
2022/07/28 00:48:02;;;;;;;7.68;5.53;;;;;;;26.33;83.60;100390.38;5032603;28;20423;-80
2022/07/28 00:50:28;;;;;;;12.30;5.35;;;;;;;26.26;83.72;100381.38;5032905;28;20021;-80
2022/07/28 00:52:54;;;;;;;8.45;5.70;;;;;;;26.15;83.88;100373.84;5032589;28;20463;-80
2022/07/28 00:55:22;;;;;;;9.38;5.90;;;;;;;26.22;83.82;100394.78;5035341;28;20025;-79
2022/07/28 00:57:47;;;;;;;7.70;5.22;;;;;;;26.18;83.97;100384.44;5037045;28;20373;-80
2022/07/28 01:00:14;;;;;;;10.80;5.70;;;;;;;26.13;83.71;100381.53;5036294;28;20049;-80
2022/07/28 01:02:40;;;;;;;7.90;4.93;;;;;;;26.17;83.52;100383.63;5019068;28;20496;-80
2022/07/28 01:05:06;;;;;;;11.13;5.43;;;;;;;26.25;83.29;100396.25;5036679;28;20052;-79
2022/07/28 01:07:44;;;;;;;13.05;6.18;;;;;;;26.22;83.32;100404.97;5036895;28;20472;-79
2022/07/28 01:10:35;;;;;;;10.20;5.93;;;;;;;26.29;83.30;100402.97;5036825;28;20018;-80
2022/07/28 01:13:11;;;;;;;8.32;5.00;;;;;;;26.26;82.85;100400.69;5036452;28;20024;-80
2022/07/28 01:15:42;;;;;;;9.15;5.35;;;;;;;26.22;82.74;100402.22;5036552;28;20032;-80
2022/07/28 01:18:24;;;;;;;8.82;5.47;;;;;;;26.20;82.95;100404.38;5035894;28;20064;-80
2022/07/28 01:20:54;;;;;;;9.52;5.15;;;;;;;26.17;82.72;100404.84;5036082;28;20029;-80
2022/07/28 01:23:31;;;;;;;5.90;4.13;;;;;;;26.16;82.68;100404.00;5036279;28;20034;-79
2022/07/28 01:26:32;;;;;;;10.25;4.70;;;;;;;26.11;83.04;100405.72;5036168;28;20052;-80
2022/07/28 01:29:26;;;;;;;8.38;4.90;;;;;;;26.14;82.55;100405.28;4995626;28;20086;-80
2022/07/28 01:32:07;;;;;;;6.15;5.25;;;;;;;26.12;82.54;100396.38;5036064;28;20033;-80
2022/07/28 01:35:05;;;;;;;5.00;4.40;;;;;;;26.01;82.53;100377.88;5036034;28;20075;-80
2022/07/28 01:37:31;;;;;;;14.55;5.13;;;;;;;26.08;82.27;100386.91;5032101;28;20041;-80
2022/07/28 01:40:01;;;;;;;11.95;4.82;;;;;;;26.01;82.28;100378.72;5035654;28;20503;-80
2022/07/28 01:42:32;;;;;;;7.47;4.95;;;;;;;26.12;82.20;100404.63;5035984;28;20029;-80
2022/07/28 01:44:59;;;;;;;9.60;4.65;;;;;;;26.08;82.26;100396.03;5035762;28;20505;-80
2022/07/28 01:47:28;;;;;;;6.88;4.75;;;;;;;26.10;82.21;100415.06;5035571;28;20029;-79
2022/07/28 01:49:56;;;;;;;7.72;5.47;;;;;;;26.08;82.21;100411.72;5035630;28;20025;-79
2022/07/28 01:52:23;;;;;;;8.38;5.30;;;;;;;26.06;82.36;100408.31;5035941;28;20091;-79
2022/07/28 01:54:52;;;;;;;10.43;5.38;;;;;;;26.09;82.36;100416.97;5035636;28;20022;-80
2022/07/28 01:57:18;;;;;;;5.82;5.25;;;;;;;26.00;82.48;100404.56;5036049;28;20060;-79
2022/07/28 01:59:45;;;;;;;6.20;4.65;;;;;;;26.08;82.63;100422.72;5035446;28;20097;-78
2022/07/28 02:02:12;;;;;;;8.55;5.40;;;;;;;25.98;82.79;100417.75;5035760;28;20112;-79
2022/07/28 02:04:40;;;;;;;8.20;5.82;;;;;;;26.03;83.11;100422.56;5035405;28;20029;-79
2022/07/28 02:07:08;;;;;;;13.43;5.65;;;;;;;25.99;83.07;100414.75;5035093;28;20033;-78
2022/07/28 02:09:35;;;;;;;16.55;5.07;;;;;;;26.02;83.50;100419.00;5035694;28;20029;-79
2022/07/28 02:12:03;;;;;;;5.88;4.82;;;;;;;26.04;83.14;100418.75;5035383;28;20037;-81
2022/07/28 02:14:29;;;;;;;7.28;5.22;;;;;;;25.96;83.10;100404.19;5034916;28;20025;-81
2022/07/28 02:17:03;;;;;;;11.27;5.97;;;;;;;26.02;83.42;100423.66;5033192;28;20037;-79
2022/07/28 02:19:30;;;;;;;6.80;5.72;;;;;;;25.96;83.57;100425.44;5035279;28;20033;-80
2022/07/28 02:21:55;;;;;;;8.30;5.78;;;;;;;25.92;83.87;100419.53;5035427;28;20075;-80
2022/07/28 02:24:26;;;;;;;8.77;4.97;;;;;;;25.98;83.79;100432.38;5035549;28;20037;-80
2022/07/28 02:26:59;;;;;;;7.72;5.20;;;;;;;25.98;84.03;100435.16;5035784;28;20095;-80
2022/07/28 02:29:27;;;;;;;11.32;5.60;;;;;;;25.99;83.81;100444.25;5035352;28;20032;-80
2022/07/28 02:32:01;;;;;;;9.38;5.55;;;;;;;25.99;83.90;100453.34;5035273;28;20033;-78
2022/07/28 02:34:27;;;;;;;7.22;5.68;;;;;;;25.99;84.08;100458.84;5033906;28;20084;-79
2022/07/28 02:36:56;;;;;;;10.75;5.57;;;;;;;25.99;84.21;100469.88;5034811;28;20040;-79
2022/07/28 02:39:27;;;;;;;6.22;5.50;;;;;;;26.02;83.95;100470.53;5034394;28;20043;-80
2022/07/28 02:42:11;;;;;;;7.22;6.25;;;;;;;25.95;84.07;100468.69;5034698;28;20057;-80
2022/07/28 02:44:51;;;;;;;12.18;5.97;;;;;;;26.01;84.09;100472.44;5034483;28;20065;-79
2022/07/28 02:47:21;;;;;;;7.05;6.22;;;;;;;25.99;84.22;100472.63;5034551;28;20036;-80
2022/07/28 02:49:50;;;;;;;10.65;6.57;;;;;;;25.94;84.51;100472.50;5034539;28;20043;-79
2022/07/28 02:52:21;;;;;;;11.60;5.93;;;;;;;25.92;84.72;100469.13;5034361;28;20026;-79
2022/07/28 02:54:48;;;;;;;8.65;6.75;;;;;;;25.98;84.28;100479.25;5034333;28;20108;-79
2022/07/28 02:57:16;;;;;;;11.57;6.72;;;;;;;25.88;84.72;100459.63;5034178;28;20039;-80
2022/07/28 02:59:42;;;;;;;11.95;6.80;;;;;;;25.95;84.72;100471.44;5034276;28;20475;-80
2022/07/28 03:02:09;;;;;;;11.18;7.00;;;;;;;25.98;84.57;100476.50;5034500;28;20052;-79
2022/07/28 03:07:19;;;;;;;14.57;6.93;;;;;;;26.05;84.72;100475.56;5034198;28;20045;-80
2022/07/28 03:09:46;;;;;;;11.90;6.70;;;;;;;26.01;84.99;100471.56;5033929;28;20034;-79
2022/07/28 03:12:13;;;;;;;12.13;6.50;;;;;;;26.06;84.88;100474.47;5034351;28;20021;-84
2022/07/28 03:14:39;;;;;;;14.70;7.15;;;;;;;26.09;84.88;100476.78;5035583;28;20057;-79
2022/07/28 03:17:05;;;;;;;18.85;7.85;;;;;;;26.09;85.24;100485.03;5032404;28;20060;-79
2022/07/28 03:19:31;;;;;;;11.88;7.45;;;;;;;26.09;85.27;100485.91;5033294;28;20111;-79
2022/07/28 03:21:56;;;;;;;12.73;7.07;;;;;;;26.01;85.15;100466.91;5033527;28;20029;-79
2022/07/28 03:24:24;;;;;;;13.52;7.38;;;;;;;26.04;85.15;100471.97;5033299;28;20032;-79
2022/07/28 03:27:11;;;;;;;14.88;7.70;;;;;;;26.04;85.50;100474.72;5033531;28;20399;-80
2022/07/28 03:29:39;;;;;;;10.45;7.70;;;;;;;26.10;85.29;100492.25;4983635;28;20388;-80
2022/07/28 03:32:06;;;;;;;15.45;9.13;;;;;;;26.11;85.21;100489.28;5033391;28;20078;-80
2022/07/28 03:34:31;;;;;;;21.23;11.30;;;;;;;26.14;85.17;100493.50;5033406;28;20529;-79
2022/07/28 03:37:04;;;;;;;20.42;11.25;;;;;;;26.18;84.92;100489.22;5033516;28;20112;-79
2022/07/28 03:39:36;;;;;;;21.40;8.93;;;;;;;26.11;85.23;100493.94;5033320;28;20103;-82
2022/07/28 03:42:02;;;;;;;;;;;;;;;26.12;85.19;100485.44;5035228;28;20033;-82
2022/07/28 03:44:28;;;;;;;13.90;7.85;;;;;;;26.07;85.43;100476.19;5033785;28;20395;-81
2022/07/28 03:46:54;;;;;;;21.20;7.97;;;;;;;26.06;85.39;100480.84;5033186;28;20060;-80
2022/07/28 03:49:19;;;;;;;11.13;7.15;;;;;;;26.14;85.21;100488.81;5033216;28;20483;-80
2022/07/28 03:51:45;;;;;;;8.80;7.00;;;;;;;26.15;85.22;100496.03;5033201;28;20025;-79
2022/07/28 03:54:10;;;;;;;15.65;7.28;;;;;;;26.19;85.13;100497.28;5032780;28;20029;-80
2022/07/28 03:56:35;;;;;;;8.90;6.05;;;;;;;26.24;84.91;100493.81;5014801;28;20027;-80
2022/07/28 03:59:01;;;;;;;18.92;8.82;;;;;;;26.17;84.26;100488.41;5032561;28;20025;-82
2022/07/28 04:01:28;;;;;;;16.48;8.15;;;;;;;26.20;84.69;100498.13;5033033;28;20148;-80
2022/07/28 04:03:53;;;;;;;10.45;6.88;;;;;;;26.29;84.42;100500.34;5032775;28;20508;-79
2022/07/28 04:06:19;;;;;;;13.60;8.30;;;;;;;26.29;84.27;100499.50;5032098;28;20105;-80
2022/07/28 04:08:44;;;;;;;12.60;6.78;;;;;;;26.31;84.52;100505.63;5031894;28;20071;-79
2022/07/28 04:11:10;;;;;;;12.82;6.38;;;;;;;26.37;84.11;100499.19;5032113;28;20025;-83
2022/07/28 04:13:35;;;;;;;20.25;7.50;;;;;;;26.44;83.64;100508.22;5032934;28;20021;-79
2022/07/28 04:16:02;;;;;;;30.08;7.25;;;;;;;26.32;83.47;100482.50;5033223;28;20080;-82
2022/07/28 04:18:27;;;;;;;7.82;5.32;;;;;;;26.48;83.25;100507.50;5033038;28;20029;-80
2022/07/28 04:20:54;;;;;;;11.38;6.35;;;;;;;26.50;83.01;100505.38;5031587;28;20128;-80
2022/07/28 04:23:20;;;;;;;17.55;6.53;;;;;;;26.48;83.18;100501.19;5031555;28;20112;-79
2022/07/28 04:25:45;;;;;;;8.38;5.57;;;;;;;26.51;82.90;100506.22;5031341;28;20470;-79
2022/07/28 04:28:11;;;;;;;16.48;6.55;;;;;;;26.48;83.19;100502.00;5031204;28;20029;-80
2022/07/28 04:30:36;;;;;;;28.63;7.40;;;;;;;26.47;83.49;100500.34;5032830;28;20056;-85
2022/07/28 04:33:02;;;;;;;27.98;7.97;;;;;;;26.47;83.40;100500.34;5033027;28;20075;-83
2022/07/28 04:35:27;;;;;;;33.55;8.02;;;;;;;26.60;83.11;100515.88;5032005;28;20026;-76
2022/07/28 04:37:57;;;;;;;32.90;7.60;;;;;;;26.64;82.93;100522.59;5030204;28;20034;-79
2022/07/28 04:40:24;;;;;;;29.63;7.88;;;;;;;26.58;82.39;100518.00;5032991;28;20025;-85
2022/07/28 04:42:50;;;;;;;27.65;6.68;;;;;;;26.60;82.38;100521.41;5014629;28;20472;-82
2022/07/28 04:45:15;;;;;;;18.58;6.10;;;;;;;26.66;82.60;100522.38;5032574;28;20104;-90
2022/07/28 04:47:41;;;;;;;11.60;5.80;;;;;;;26.65;82.55;100527.03;5032999;28;20029;-82
2022/07/28 04:50:09;;;;;;;11.20;6.18;;;;;;;26.66;83.15;100525.97;5032618;28;20484;-83
2022/07/28 04:52:35;;;;;;;9.52;6.10;;;;;;;26.69;82.97;100531.03;5033956;28;20045;-83
2022/07/28 04:55:01;;;;;;;11.38;6.20;;;;;;;26.50;82.96;100510.06;5032655;28;20052;-81
2022/07/28 04:57:29;;;;;;;17.23;4.72;;;;;;;26.62;82.68;100530.28;5032754;28;20026;-81
2022/07/28 04:59:56;;;;;;;19.40;5.95;;;;;;;26.58;82.77;100537.31;5033602;28;20511;-79
2022/07/28 05:02:21;;;;;;;11.02;4.97;;;;;;;26.49;82.99;100524.91;5033389;28;20457;-86
2022/07/28 05:04:46;;;;;;;9.02;4.82;;;;;;;26.64;82.63;100538.31;5032349;28;20104;-77
2022/07/28 05:07:12;;;;;;;22.58;6.00;;;;;;;26.74;82.61;100538.59;5029748;28;20036;-76
2022/07/28 05:09:37;;;;;;;22.98;6.28;;;;;;;26.75;81.80;100541.16;5029674;28;20450;-80
2022/07/28 05:12:05;;;;;;;10.88;4.70;;;;;;;26.67;80.81;100535.06;5032938;28;20433;-85
2022/07/28 05:14:31;;;;;;;11.88;6.53;;;;;;;26.66;80.32;100534.25;5032703;28;20049;-85
2022/07/28 05:16:56;;;;;;;8.80;4.68;;;;;;;26.72;80.35;100541.59;5031066;28;20581;-80
2022/07/28 05:19:22;;;;;;;10.10;4.85;;;;;;;26.69;80.40;100544.84;5013663;28;20341;-83
2022/07/28 05:21:47;;;;;;;12.98;5.50;;;;;;;26.68;80.32;100534.84;5033003;28;20025;-83
2022/07/28 05:24:13;;;;;;;11.48;5.18;;;;;;;26.66;80.01;100525.97;5032384;28;20053;-82
2022/07/28 05:26:39;;;;;;;12.73;4.97;;;;;;;26.76;79.02;100548.34;5032261;28;20475;-82
2022/07/28 05:29:04;;;;;;;16.30;6.07;;;;;;;26.71;78.81;100545.44;5031659;28;20099;-82
2022/07/28 05:31:30;;;;;;;17.45;5.90;;;;;;;26.75;78.39;100543.91;5031270;28;20400;-81
2022/07/28 05:33:55;;;;;;;17.30;5.50;;;;;;;26.79;78.45;100547.88;5028925;28;20064;-83
2022/07/28 05:36:23;;;;;;;11.23;4.78;;;;;;;26.82;77.67;100552.09;5025066;28;20045;-82
2022/07/28 05:38:48;;;;;;;23.45;6.03;;;;;;;26.83;78.45;100562.94;5031328;28;20032;-82
2022/07/28 05:41:14;;;;;;;13.23;5.38;;;;;;;26.89;77.80;100563.91;5033841;28;20021;-83
2022/07/28 05:43:39;;;;;;;12.80;5.57;;;;;;;26.92;77.08;100561.53;5035761;28;20031;-82
2022/07/28 05:46:05;;;;;;;28.38;5.68;;;;;;;26.89;77.19;100548.19;5036079;28;20083;-83
2022/07/28 05:48:31;;;;;;;17.63;6.10;;;;;;;26.88;77.40;100538.22;5035816;28;20022;-84
2022/07/28 05:50:56;;;;;;;7.90;4.95;;;;;;;26.88;77.37;100551.19;5038671;28;20025;-82
2022/07/28 05:53:22;;;;;;;15.70;5.55;;;;;;;26.96;78.00;100571.03;5033033;28;20021;-80
2022/07/28 05:55:49;;;;;;;14.45;5.45;;;;;;;26.95;77.55;100568.50;5037808;28;20423;-80
2022/07/28 05:58:14;;;;;;;14.25;5.90;;;;;;;26.98;77.16;100574.41;5034473;28;20068;-79
2022/07/28 06:00:40;;;;;;;9.02;4.93;;;;;;;26.99;76.75;100573.34;5034214;28;20069;-82
2022/07/28 06:03:06;;;;;;;11.75;4.70;;;;;;;27.02;76.67;100574.78;4997034;28;20115;-78
2022/07/28 06:05:32;;;;;;;8.43;4.30;;;;;;;27.00;75.63;100572.25;5015657;28;20030;-81
2022/07/28 06:07:59;;;;;;;8.75;4.90;;;;;;;27.00;75.87;100583.28;5015135;28;20026;-84
2022/07/28 06:10:57;;;;;;;9.98;5.10;;;;;;;27.02;75.08;100585.81;5028531;28;20487;-81
2022/07/28 06:13:14;;;;;;;7.38;4.55;;;;;;;27.08;75.24;100584.03;5060034;28;20055;-82
2022/07/28 06:15:39;;;;;;;12.80;5.50;;;;;;;27.14;74.49;100588.63;5055975;28;20024;-87
2022/07/28 06:18:05;;;;;;;14.98;4.50;;;;;;;27.16;74.58;100580.94;5055427;28;20020;-83
2022/07/28 06:20:30;;;;;;;8.20;4.47;;;;;;;27.17;74.27;100593.69;5054008;28;20066;-80
2022/07/28 06:22:56;;;;;;;7.05;4.28;;;;;;;27.18;73.74;100584.34;5054700;28;20390;-79
2022/07/28 06:25:25;;;;;;;12.82;4.47;;;;;;;27.21;73.40;100584.72;5057695;28;20033;-78
2022/07/28 06:27:53;;;;;;;9.40;4.65;;;;;;;27.24;73.57;100589.78;5054965;28;20029;-80
2022/07/28 06:30:19;;;;;;;11.45;4.13;;;;;;;27.22;74.15;100602.09;5054069;28;20017;-82
2022/07/28 06:32:45;;;;;;;4.93;3.97;;;;;;;27.30;73.28;100593.50;5055451;28;20032;-80
2022/07/28 06:35:15;;;;;;;8.93;4.50;;;;;;;27.37;72.61;100600.59;5053944;28;20491;-81
2022/07/28 06:37:41;;;;;;;12.02;4.07;;;;;;;27.36;72.72;100598.94;5037193;28;20048;-83
2022/07/28 06:40:08;;;;;;;18.52;4.57;;;;;;;27.42;72.67;100599.91;5035662;28;20104;-85
2022/07/28 06:42:33;;;;;;;20.93;4.00;;;;;;;27.44;72.32;100611.59;5037325;28;20491;-87
2022/07/28 06:44:59;;;;;;;9.65;4.30;;;;;;;27.47;71.21;100608.34;5054333;28;20035;-89
2022/07/28 06:47:24;;;;;;;8.75;4.35;;;;;;;27.48;71.32;100612.81;5048775;28;20033;-78
2022/07/28 06:49:50;;;;;;;12.05;4.07;;;;;;;27.50;71.54;100616.19;5039512;28;20387;-77
2022/07/28 06:52:19;;;;;;;17.75;4.65;;;;;;;27.59;71.00;100614.75;5032648;28;20475;-77
2022/07/28 06:54:45;;;;;;;10.55;3.60;;;;;;;27.61;70.34;100617.31;5051590;28;20029;-77
2022/07/28 06:57:12;;;;;;;9.18;4.47;;;;;;;27.64;70.56;100620.44;5052037;28;20108;-77
2022/07/28 06:59:38;;;;;;;9.45;4.45;;;;;;;27.63;70.28;100627.03;5051713;28;20462;-77
2022/07/28 07:02:04;;;;;;;9.88;3.95;;;;;;;27.66;70.32;100620.19;5043668;28;20033;-78
2022/07/28 07:04:29;;;;;;;10.20;3.38;;;;;;;27.72;70.65;100625.63;5033019;28;20027;-78
2022/07/28 07:06:55;;;;;;;10.80;4.80;;;;;;;27.76;69.83;100624.06;5050196;28;20044;-79
2022/07/28 07:09:20;;;;;;;8.02;4.13;;;;;;;27.84;69.05;100626.47;5046668;28;20037;-78
2022/07/28 07:11:46;;;;;;;11.38;3.90;;;;;;;27.83;68.12;100626.69;5035684;28;20029;-78
2022/07/28 07:14:11;;;;;;;10.57;4.07;;;;;;;27.89;68.27;100629.38;5040747;28;20500;-78
2022/07/28 07:16:37;;;;;;;8.75;4.38;;;;;;;27.95;67.67;100628.41;5024444;28;20025;-78
2022/07/28 07:19:02;;;;;;;7.63;3.67;;;;;;;27.88;66.88;100630.47;5038307;28;20029;-80
2022/07/28 07:21:28;;;;;;;6.18;4.38;;;;;;;27.95;66.25;100628.41;5039751;28;20091;-77
2022/07/28 07:23:54;;;;;;;11.13;4.13;;;;;;;27.92;65.99;100637.19;5037116;28;20025;-81
2022/07/28 07:26:19;;;;;;;4.32;3.53;;;;;;;27.88;65.62;100630.47;5007431;28;20573;-82
2022/07/28 07:28:46;;;;;;;12.32;4.30;;;;;;;27.99;64.81;100631.53;5032755;28;20579;-83
2022/07/28 07:31:12;;;;;;;15.70;4.13;;;;;;;28.02;64.93;100637.44;5037199;28;20108;-81
2022/07/28 07:33:37;;;;;;;7.93;4.93;;;;;;;28.01;64.64;100635.75;5035862;28;20052;-81
2022/07/28 07:36:03;;;;;;;8.45;5.00;;;;;;;28.09;64.91;100637.38;5036402;28;20117;-81
2022/07/28 07:38:29;;;;;;;35.22;6.60;;;;;;;28.01;64.23;100626.63;5035690;28;20064;-83
2022/07/28 07:40:54;;;;;;;13.38;4.15;;;;;;;28.13;64.00;100644.13;5053048;28;20037;-81
2022/07/28 07:43:19;;;;;;;13.30;3.88;;;;;;;28.19;62.64;100645.94;5052235;28;20029;-81
2022/07/28 07:45:45;;;;;;;12.30;4.38;;;;;;;28.17;63.47;100645.31;5050911;28;20033;-81
2022/07/28 07:48:10;;;;;;;4.85;3.35;;;;;;;28.19;63.04;100642.31;5033631;28;20064;-82
2022/07/28 07:50:37;;;;;;;9.13;4.78;;;;;;;28.23;61.55;100649.03;5041004;28;20483;-81
2022/07/28 07:53:03;;;;;;;14.48;4.47;;;;;;;28.19;62.04;100648.69;5040688;28;20036;-81
2022/07/28 07:55:28;;;;;;;19.38;4.65;;;;;;;28.29;61.91;100659.13;5033831;28;20033;-80
2022/07/28 07:57:54;;;;;;;13.73;4.35;;;;;;;28.37;58.56;100661.56;5038306;28;20021;-81
2022/07/28 08:00:20;;;;;;;18.10;3.63;;;;;;;28.41;58.57;100652.53;5035123;28;20099;-80
2022/07/28 08:02:46;;;;;;;11.82;4.05;;;;;;;28.50;60.00;100653.03;5034207;28;20045;-82
2022/07/28 08:05:11;;;;;;;6.07;3.75;;;;;;;28.51;58.95;100657.47;5032434;28;20060;-81
2022/07/28 08:07:53;;;;;;;9.88;4.10;;;;;;;28.63;58.77;100644.44;5036544;28;20067;-80
2022/07/28 08:10:19;;;;;;;13.70;4.18;;;;;;;28.67;59.85;100645.69;5034999;28;20041;-81
2022/07/28 08:12:44;;;;;;;6.55;3.50;;;;;;;28.75;58.52;100650.84;5032983;28;20037;-80
2022/07/28 08:15:10;;;;;;;9.13;3.70;;;;;;;28.76;57.17;100641.47;5035816;28;20017;-80
2022/07/28 08:17:36;;;;;;;6.72;3.38;;;;;;;28.85;59.53;100644.69;5039782;28;20032;-81
2022/07/28 08:20:03;;;;;;;8.77;4.10;;;;;;;28.92;59.45;100654.56;5032795;28;20021;-80
2022/07/28 08:22:28;;;;;;;8.88;3.85;;;;;;;28.93;57.73;100642.38;5032966;28;20460;-81
2022/07/28 08:24:54;;;;;;;7.28;3.75;;;;;;;28.98;57.93;100648.03;5036004;28;20014;-80
2022/07/28 08:27:20;;;;;;;9.20;3.58;;;;;;;29.01;57.99;100653.09;5032799;28;20557;-81
2022/07/28 08:29:45;;;;;;;10.55;3.50;;;;;;;29.08;59.08;100645.47;5036512;28;20404;-80
2022/07/28 08:32:11;;;;;;;11.32;3.85;;;;;;;29.16;59.31;100647.88;5048775;28;20024;-81
2022/07/28 08:34:36;;;;;;;8.05;3.70;;;;;;;29.12;57.79;100648.59;5032577;28;20049;-80
2022/07/28 08:37:04;;;;;;;16.00;4.28;;;;;;;29.21;57.33;100651.81;5041834;28;20475;-80
2022/07/28 08:39:31;;;;;;;9.98;4.28;;;;;;;29.23;56.34;100650.50;5039386;28;20450;-80
2022/07/28 08:42:24;;;;;;;15.18;4.40;;;;;;;29.14;55.46;100663.88;5032455;28;20029;-80
2022/07/28 08:44:57;;;;;;;6.82;3.70;;;;;;;29.21;56.76;100654.56;5039658;28;20024;-79
2022/07/28 08:47:25;;;;;;;9.85;4.05;;;;;;;29.17;56.70;100660.59;5052228;28;20021;-80
2022/07/28 08:49:53;;;;;;;8.07;3.40;;;;;;;29.29;55.83;100657.00;5047312;28;20415;-81
2022/07/28 08:52:21;;;;;;;7.90;3.40;;;;;;;29.26;55.93;100661.13;5041490;28;20038;-81
2022/07/28 08:54:48;;;;;;;7.57;3.90;;;;;;;29.33;57.15;100663.72;5046092;28;20482;-80
2022/07/28 08:57:21;;;;;;;12.93;4.88;;;;;;;29.37;55.82;100662.16;5051871;28;20033;-80
2022/07/28 08:59:48;;;;;;;12.30;4.45;;;;;;;29.38;55.01;100652.75;5042958;28;20028;-81
2022/07/28 09:02:14;;;;;;;12.63;5.05;;;;;;;29.39;54.20;100651.66;5044001;28;20040;-81
2022/07/28 09:04:41;;;;;;;8.55;4.25;;;;;;;29.44;55.82;100651.78;5043312;28;20122;-80
2022/07/28 09:07:07;;;;;;;6.25;3.70;;;;;;;29.51;55.42;100663.56;5035159;28;20063;-81
2022/07/28 09:09:32;;;;;;;11.07;4.20;;;;;;;29.54;56.08;100661.09;5038243;28;20112;-80
2022/07/28 09:12:04;;;;;;;6.20;3.75;;;;;;;29.62;55.70;100671.81;5052093;28;20060;-81
2022/07/28 09:14:30;;;;;;;14.52;4.75;;;;;;;29.67;54.61;100673.81;5051221;28;20041;-80
2022/07/28 09:16:58;;;;;;;12.52;3.80;;;;;;;29.72;54.21;100673.09;5049629;28;20416;-80
2022/07/28 09:19:24;;;;;;;8.88;3.88;;;;;;;29.61;54.71;100664.56;5053645;28;20044;-80
2022/07/28 09:21:49;;;;;;;5.95;3.70;;;;;;;29.67;54.51;100668.28;5036721;28;20496;-80
2022/07/28 09:24:35;;;;;;;34.30;4.90;;;;;;;29.75;53.75;100669.81;5024220;28;20013;-80
2022/07/28 09:27:03;;;;;;;15.10;3.88;;;;;;;29.73;53.20;100658.97;5036000;28;20021;-80
2022/07/28 09:29:28;;;;;;;8.02;3.75;;;;;;;29.78;52.62;100670.16;5035489;28;20027;-77
2022/07/28 09:31:54;;;;;;;6.15;3.60;;;;;;;29.80;54.48;100661.56;5036855;28;20029;-85
2022/07/28 09:34:20;;;;;;;9.10;3.40;;;;;;;29.92;53.10;100670.69;5035948;28;20052;-84
2022/07/28 09:36:45;;;;;;;37.92;5.97;;;;;;;29.94;52.56;100658.25;5037752;28;20076;-85
2022/07/28 09:39:36;;;;;;;28.73;4.85;;;;;;;29.98;53.18;100662.22;5037748;28;20554;-87
2022/07/28 09:42:02;;;;;;;6.20;3.70;;;;;;;29.98;53.88;100659.44;5038978;28;20523;-88
2022/07/28 09:44:28;;;;;;;5.78;3.60;;;;;;;30.02;54.06;100660.63;5037562;28;20100;-83
2022/07/28 09:46:55;;;;;;;10.88;3.10;;;;;;;29.96;52.76;100672.75;5053456;28;20119;-79
2022/07/28 09:49:21;;;;;;;20.33;4.35;;;;;;;29.96;52.63;100671.91;5047054;28;20040;-80
2022/07/28 09:52:02;;;;;;;5.03;3.35;;;;;;;30.02;53.09;100671.72;5058955;28;20067;-81
2022/07/28 09:54:28;;;;;;;6.55;3.63;;;;;;;30.05;53.50;100660.13;5056796;28;20040;-79
2022/07/28 09:56:54;;;;;;;6.13;3.50;;;;;;;30.07;54.71;100657.94;5045734;28;20037;-78
2022/07/28 09:59:20;;;;;;;9.43;4.10;;;;;;;30.09;55.26;100675.16;5034224;28;20029;-81
2022/07/28 10:01:59;;;;;;;11.40;3.80;;;;;;;30.08;56.12;100665.19;5034093;28;20045;-80
2022/07/28 10:04:29;;;;;;;17.08;5.25;;;;;;;30.07;55.81;100657.94;5034137;28;20033;-78
2022/07/28 10:07:08;;;;;;;27.15;5.15;;;;;;;30.15;54.55;100665.84;5034215;28;20120;-79
2022/07/28 10:09:34;;;;;;;22.15;4.50;;;;;;;30.24;53.28;100672.63;5033333;28;20025;-79
2022/07/28 10:12:23;;;;;;;12.35;3.53;;;;;;;30.24;54.54;100669.06;5033353;28;20406;-79
2022/07/28 10:14:50;;;;;;;9.93;3.75;;;;;;;30.29;53.44;100658.03;5034126;28;20017;-82
2022/07/28 10:17:45;;;;;;;12.85;4.05;;;;;;;30.33;53.38;100666.69;5034325;28;20035;-79
2022/07/28 10:20:11;;;;;;;21.90;4.28;;;;;;;30.40;53.33;100670.13;5004587;28;20411;-79
2022/07/28 10:22:39;;;;;;;5.88;3.80;;;;;;;30.44;52.59;100676.88;5037166;28;20033;-79
2022/07/28 10:25:14;;;;;;;8.82;3.97;;;;;;;30.44;53.39;100668.53;5052389;28;20032;-78
2022/07/28 10:27:40;;;;;;;12.93;3.85;;;;;;;30.55;53.93;100668.44;5033437;28;20526;-78
2022/07/28 10:30:07;;;;;;;7.85;3.33;;;;;;;30.64;52.49;100666.09;5033761;28;20044;-81
2022/07/28 10:32:37;;;;;;;7.03;3.67;;;;;;;30.85;51.43;100667.22;5033720;28;20034;-81
2022/07/28 10:35:14;;;;;;;10.90;3.67;;;;;;;30.92;49.83;100677.03;5034654;28;20033;-84
2022/07/28 10:38:04;;;;;;;10.75;3.80;;;;;;;31.11;49.69;100670.09;5033646;28;20573;-79
2022/07/28 10:40:41;;;;;;;7.35;3.30;;;;;;;31.17;47.73;100677.41;5013673;28;20137;-80
2022/07/28 10:43:07;;;;;;;6.90;3.08;;;;;;;31.21;48.22;100666.59;5012920;28;20030;-79
2022/07/28 10:45:34;;;;;;;11.07;3.75;;;;;;;31.23;46.82;100668.03;5048450;28;20498;-79
2022/07/28 10:48:00;;;;;;;8.65;3.72;;;;;;;31.33;46.14;100670.09;5052327;28;20037;-80
2022/07/28 10:50:26;;;;;;;11.55;3.03;;;;;;;31.23;46.15;100673.56;5052261;28;20041;-79
2022/07/28 10:52:53;;;;;;;10.40;3.20;;;;;;;31.19;46.72;100669.63;5052159;28;20029;-80
2022/07/28 10:55:37;;;;;;;4.22;3.28;;;;;;;31.26;46.99;100672.22;5052069;28;20032;-79
2022/07/28 10:58:08;;;;;;;5.82;3.00;;;;;;;31.36;47.45;100671.50;5050796;28;20521;-79
2022/07/28 11:00:41;;;;;;;9.23;3.40;;;;;;;31.26;48.09;100673.06;5050887;28;20108;-79
2022/07/28 11:03:07;;;;;;;7.63;4.00;;;;;;;31.17;46.97;100674.63;5032847;28;20507;-79
2022/07/28 11:05:33;;;;;;;8.65;3.88;;;;;;;31.16;47.43;100667.38;5050879;28;20028;-79
2022/07/28 11:08:06;;;;;;;11.98;3.55;;;;;;;31.22;47.15;100671.88;5050565;28;20036;-79
2022/07/28 11:10:49;;;;;;;7.50;3.08;;;;;;;31.13;46.74;100670.66;5050434;28;20036;-79
2022/07/28 11:13:31;;;;;;;5.50;3.65;;;;;;;31.25;46.49;100665.00;5034265;28;20090;-78
2022/07/28 11:16:23;;;;;;;5.78;3.00;;;;;;;31.24;46.21;100669.72;5052328;28;20090;-79
2022/07/28 11:19:00;;;;;;;32.92;4.00;;;;;;;31.24;43.53;100664.16;5052284;28;20033;-79
2022/07/28 11:21:26;;;;;;;9.25;3.13;;;;;;;31.21;45.43;100686.91;5051947;28;20423;-79
2022/07/28 11:23:56;;;;;;;10.18;3.83;;;;;;;31.15;44.75;100684.31;5051812;28;20029;-79
2022/07/28 11:26:22;;;;;;;7.20;3.40;;;;;;;31.21;42.52;100677.72;5052253;28;20029;-79
2022/07/28 11:28:56;;;;;;;6.28;2.85;;;;;;;31.34;43.96;100676.50;5051987;28;20459;-79
2022/07/28 11:31:46;;;;;;;9.52;2.92;;;;;;;31.36;41.49;100677.91;5052258;28;20028;-79